Time;durP1;ratioP1;P1;durP2;ratioP2;P2;SDS_P1;SDS_P2;PMS_P1;PMS_P2;Temp;Humidity;BMP_temperature;BMP_pressure;BME280_temperature;BME280_humidity;BME280_pressure;Samples;Min_cycle;Max_cycle;Signal;HPM_P1;HPM_P2
2022/08/26 00:01:55;;;;;;;6.75;0.80;;;21.80;99.90;;;;;;4182708;28;20237;-92
2022/08/26 00:03:57;;;;;;;4.95;0.95;;;21.80;99.90;;;;;;4183262;28;20167;-95
2022/08/26 00:05:58;;;;;;;6.72;0.98;;;21.80;99.90;;;;;;4166684;28;20584;-96
2022/08/26 00:07:59;;;;;;;4.93;1.00;;;21.70;99.90;;;;;;4166687;28;20168;-96
2022/08/26 00:10:00;;;;;;;6.72;1.00;;;21.70;99.90;;;;;;4182956;28;20199;-92
2022/08/26 00:12:00;;;;;;;5.75;0.88;;;21.60;99.90;;;;;;4166194;28;20175;-94
2022/08/26 00:14:01;;;;;;;4.35;0.90;;;21.70;99.90;;;;;;4182714;28;20322;-93
2022/08/26 00:16:04;;;;;;;3.15;0.68;;;21.70;99.90;;;;;;4182746;28;20176;-96
2022/08/26 00:18:05;;;;;;;5.68;0.95;;;21.70;99.90;;;;;;4166159;28;20185;-95
2022/08/26 00:20:08;;;;;;;2.65;1.10;;;21.80;99.90;;;;;;4182764;28;20202;-92
2022/08/26 00:22:09;;;;;;;5.93;0.93;;;21.80;99.90;;;;;;4165935;28;20270;-93
2022/08/26 00:24:09;;;;;;;8.93;1.48;;;21.60;99.90;;;;;;4182399;28;20179;-95
2022/08/26 00:26:11;;;;;;;5.45;0.93;;;21.60;99.90;;;;;;4182548;28;20190;-92
2022/08/26 00:28:14;;;;;;;6.70;0.90;;;21.60;99.90;;;;;;4182571;28;20659;-96
2022/08/26 00:30:19;;;;;;;7.57;1.13;;;21.70;99.90;;;;;;4166010;28;20214;-92
2022/08/26 00:32:20;;;;;;;6.35;1.10;;;21.80;99.90;;;;;;4182492;28;20175;-93
2022/08/26 00:34:20;;;;;;;4.82;1.05;;;21.60;99.90;;;;;;4182420;28;20203;-95
2022/08/26 00:36:21;;;;;;;4.80;1.10;;;21.70;99.90;;;;;;4165933;28;20202;-94
2022/08/26 00:38:23;;;;;;;6.07;1.00;;;21.70;99.90;;;;;;4165800;28;20231;-93
2022/08/26 00:40:35;;;;;;;8.90;1.10;;;21.70;99.90;;;;;;4166009;28;20180;-92
2022/08/26 00:42:36;;;;;;;4.00;0.70;;;21.70;99.90;;;;;;4166077;28;20203;-93
2022/08/26 00:44:37;;;;;;;4.45;0.85;;;21.70;99.90;;;;;;4182114;28;20160;-96
2022/08/26 00:46:42;;;;;;;5.85;1.10;;;21.40;99.90;;;;;;4182011;28;20177;-93
2022/08/26 00:48:48;;;;;;;5.15;1.20;;;21.50;99.90;;;;;;4182962;28;20263;-96
2022/08/26 00:51:07;;;;;;;4.85;1.23;;;21.60;99.90;;;;;;4165887;28;20180;-96
2022/08/26 00:53:20;;;;;;;4.88;0.93;;;21.60;99.90;;;;;;4182351;28;20179;-93
2022/08/26 00:55:30;;;;;;;7.72;1.20;;;21.50;99.90;;;;;;4166896;28;20191;-94
2022/08/26 00:57:31;;;;;;;6.47;1.15;;;21.70;99.90;;;;;;4182098;28;20238;-94
2022/08/26 00:59:32;;;;;;;10.75;1.33;;;21.80;99.90;;;;;;4182084;28;20286;-96
2022/08/26 01:01:34;;;;;;;5.70;1.20;;;22.10;99.90;;;;;;4182166;28;20175;-94
2022/08/26 01:03:36;;;;;;;9.40;1.38;;;21.80;99.90;;;;;;4165679;28;20172;-96
2022/08/26 01:05:40;;;;;;;9.60;1.30;;;21.40;99.90;;;;;;4182019;28;20268;-93
2022/08/26 01:07:42;;;;;;;5.28;0.93;;;21.30;99.90;;;;;;4165519;28;20228;-95
2022/08/26 01:09:43;;;;;;;8.63;1.20;;;21.40;99.90;;;;;;4165129;28;20230;-95
2022/08/26 01:11:46;;;;;;;5.18;1.08;;;21.70;99.90;;;;;;4164304;28;20175;-95
2022/08/26 01:13:49;;;;;;;5.50;1.02;;;21.80;99.90;;;;;;4181726;28;20544;-91
2022/08/26 01:15:54;;;;;;;8.38;1.20;;;21.80;99.90;;;;;;4181761;28;20215;-93
2022/08/26 01:17:57;;;;;;;9.13;1.10;;;21.50;99.90;;;;;;4165348;28;20176;-95
2022/08/26 01:20:18;;;;;;;5.00;1.17;;;21.30;99.90;;;;;;4181632;28;20191;-96
2022/08/26 01:22:29;;;;;;;5.90;1.00;;;21.40;99.90;;;;;;4181664;28;20211;-95
2022/08/26 01:24:30;;;;;;;5.80;1.27;;;21.30;99.90;;;;;;4165033;28;20172;-93
2022/08/26 01:26:39;;;;;;;6.30;1.15;;;21.30;99.90;;;;;;4181718;28;20686;-93
2022/08/26 01:28:41;;;;;;;6.13;1.10;;;21.30;99.90;;;;;;4165030;28;20258;-96
2022/08/26 01:30:44;;;;;;;5.68;1.00;;;21.30;99.90;;;;;;4181628;28;20237;-93
2022/08/26 01:32:45;;;;;;;5.53;0.85;;;21.30;99.90;;;;;;4181526;28;20292;-93
2022/08/26 01:34:47;;;;;;;8.05;1.35;;;21.20;99.90;;;;;;4181482;28;20207;-93
2022/08/26 01:36:51;;;;;;;7.40;1.00;;;21.30;99.90;;;;;;4165131;28;20179;-94
2022/08/26 01:38:52;;;;;;;5.88;1.17;;;21.70;99.90;;;;;;4165059;28;20622;-92
2022/08/26 01:40:53;;;;;;;3.95;0.90;;;21.80;99.90;;;;;;4165028;28;20287;-93
2022/08/26 01:42:54;;;;;;;6.93;1.30;;;21.60;99.90;;;;;;4165133;28;20180;-96
2022/08/26 01:45:09;;;;;;;15.63;1.48;;;21.60;99.90;;;;;;4164967;28;20164;-93
2022/08/26 01:47:12;;;;;;;7.50;1.30;;;21.70;99.90;;;;;;4181478;28;20631;-94
2022/08/26 01:49:13;;;;;;;8.38;0.88;;;21.40;99.90;;;;;;4181347;28;20214;-92
2022/08/26 01:51:16;;;;;;;5.40;1.10;;;21.20;99.90;;;;;;4181383;28;20159;-92
2022/08/26 01:53:18;;;;;;;8.65;1.40;;;21.70;99.90;;;;;;4164789;28;20218;-94
2022/08/26 01:55:20;;;;;;;6.05;1.02;;;21.90;99.90;;;;;;4181258;28;20258;-92
2022/08/26 01:57:22;;;;;;;7.03;1.17;;;21.50;99.90;;;;;;4181331;28;20233;-92
2022/08/26 01:59:24;;;;;;;7.97;1.40;;;21.60;99.90;;;;;;4164988;28;20200;-94
2022/08/26 02:01:26;;;;;;;6.95;1.10;;;21.40;99.90;;;;;;4181463;28;20266;-94
2022/08/26 02:03:27;;;;;;;5.97;1.10;;;21.30;99.90;;;;;;4164818;28;20172;-95
2022/08/26 02:05:28;;;;;;;5.32;1.30;;;21.50;99.90;;;;;;4181349;28;20254;-94
2022/08/26 02:07:31;;;;;;;8.25;1.00;;;21.20;99.90;;;;;;4181305;28;20171;-92
2022/08/26 02:09:32;;;;;;;8.55;1.08;;;21.10;99.90;;;;;;4164491;28;20196;-93
2022/08/26 02:11:34;;;;;;;9.00;1.02;;;21.40;99.90;;;;;;4181001;28;20172;-91
2022/08/26 02:13:42;;;;;;;7.70;1.73;;;21.40;99.90;;;;;;4181237;28;20528;-93
2022/08/26 02:15:43;;;;;;;7.07;1.52;;;21.50;99.90;;;;;;4164761;28;20670;-95
2022/08/26 02:17:46;;;;;;;9.88;1.60;;;21.40;99.90;;;;;;4164662;28;20214;-92
2022/08/26 02:19:48;;;;;;;8.52;1.65;;;21.20;99.90;;;;;;4181012;28;20261;-96
2022/08/26 02:21:51;;;;;;;8.07;1.70;;;21.20;99.90;;;;;;4164486;28;20184;-93
2022/08/26 02:23:52;;;;;;;10.60;1.30;;;21.10;99.90;;;;;;4184537;28;20182;-96
2022/08/26 02:26:06;;;;;;;5.75;1.20;;;21.10;99.90;;;;;;4184553;28;20201;-94
2022/08/26 02:28:09;;;;;;;7.53;1.15;;;20.90;99.90;;;;;;4184559;28;20669;-92
2022/08/26 02:30:18;;;;;;;8.27;1.25;;;21.00;99.90;;;;;;4167570;28;20286;-93
2022/08/26 02:32:19;;;;;;;7.50;1.38;;;20.90;99.90;;;;;;4184194;28;20336;-95
2022/08/26 02:34:29;;;;;;;4.47;0.95;;;20.90;99.90;;;;;;4184349;28;20611;-94
2022/08/26 02:36:29;;;;;;;7.70;1.10;;;21.00;99.90;;;;;;4184379;28;20171;-96
2022/08/26 02:38:31;;;;;;;6.20;1.23;;;21.00;99.90;;;;;;4184896;28;20293;-93
2022/08/26 02:40:35;;;;;;;4.47;0.98;;;20.80;99.90;;;;;;4167874;28;20172;-92
2022/08/26 02:42:36;;;;;;;9.13;1.38;;;20.90;99.90;;;;;;4184300;28;20172;-95
2022/08/26 02:44:37;;;;;;;4.63;1.15;;;21.00;99.90;;;;;;4184172;28;20207;-91
2022/08/26 02:46:38;;;;;;;8.30;1.08;;;21.10;99.90;;;;;;4184031;28;20579;-93
2022/08/26 02:48:38;;;;;;;4.22;1.25;;;21.10;99.90;;;;;;4167567;28;20666;-96
2022/08/26 02:50:40;;;;;;;7.25;1.00;;;21.00;99.90;;;;;;4167592;28;20545;-96
2022/08/26 02:52:40;;;;;;;5.53;1.23;;;20.90;99.90;;;;;;4184124;28;20179;-95
2022/08/26 02:54:41;;;;;;;5.72;1.20;;;21.10;99.90;;;;;;4183924;28;20203;-95
2022/08/26 02:56:43;;;;;;;6.05;1.15;;;21.10;99.90;;;;;;4167396;28;20180;-92
2022/08/26 02:58:44;;;;;;;5.15;1.13;;;21.10;99.90;;;;;;4184012;28;20202;-95
2022/08/26 03:00:46;;;;;;;7.63;1.17;;;21.10;99.90;;;;;;4183862;28;20172;-93
2022/08/26 03:02:47;;;;;;;6.90;1.10;;;21.20;99.90;;;;;;4167524;28;20179;-96
2022/08/26 03:04:49;;;;;;;6.80;1.17;;;21.20;99.90;;;;;;4167270;28;20206;-93
2022/08/26 03:06:50;;;;;;;7.90;1.40;;;21.20;99.90;;;;;;4167361;28;20171;-94
2022/08/26 03:08:51;;;;;;;7.78;1.17;;;21.10;99.90;;;;;;4183501;28;20196;-92
2022/08/26 03:10:51;;;;;;;6.00;1.27;;;21.10;99.90;;;;;;4167453;28;20255;-93
2022/08/26 03:12:52;;;;;;;6.00;1.23;;;21.10;99.90;;;;;;4183769;28;20191;-92
2022/08/26 03:14:53;;;;;;;3.70;1.10;;;21.20;99.90;;;;;;4183768;28;20284;-93
2022/08/26 03:16:54;;;;;;;5.80;1.77;;;21.20;99.90;;;;;;4183784;28;20163;-92
2022/08/26 03:18:55;;;;;;;9.05;1.67;;;21.20;99.90;;;;;;4166950;28;20195;-92
2022/08/26 03:20:56;;;;;;;11.38;1.80;;;21.10;99.90;;;;;;4166915;28;20547;-93
2022/08/26 03:22:57;;;;;;;8.85;1.63;;;21.30;99.90;;;;;;4167098;28;20187;-93
2022/08/26 03:24:57;;;;;;;8.10;1.75;;;21.30;99.90;;;;;;4166970;28;20180;-93
2022/08/26 03:26:59;;;;;;;7.18;1.63;;;21.00;99.90;;;;;;4167090;28;20556;-94
2022/08/26 03:31:18;;;;;;;6.32;1.45;;;21.00;99.90;;;;;;4183589;28;20185;-95
2022/08/26 03:33:21;;;;;;;8.68;1.70;;;21.10;99.90;;;;;;4166921;28;20609;-96
2022/08/26 03:35:21;;;;;;;8.07;1.63;;;21.10;99.90;;;;;;4182495;28;20207;-93
2022/08/26 03:37:23;;;;;;;8.10;1.60;;;21.20;99.90;;;;;;4166601;28;20176;-93
2022/08/26 03:39:24;;;;;;;6.22;1.40;;;21.10;99.90;;;;;;4166615;28;20262;-95
2022/08/26 03:41:25;;;;;;;8.45;1.75;;;21.10;99.90;;;;;;4166745;28;20179;-94
2022/08/26 03:43:26;;;;;;;5.43;1.40;;;21.00;99.90;;;;;;4166819;28;20164;-94
2022/08/26 03:45:27;;;;;;;6.78;1.50;;;21.10;99.90;;;;;;4182919;28;20183;-93
2022/08/26 03:47:27;;;;;;;9.25;1.40;;;21.00;99.90;;;;;;4166500;28;20236;-96
2022/08/26 03:49:30;;;;;;;4.88;1.40;;;20.90;99.90;;;;;;4166497;28;20184;-93
2022/08/26 03:51:31;;;;;;;7.13;1.40;;;21.00;99.90;;;;;;4166752;28;20176;-92
2022/08/26 03:53:32;;;;;;;8.85;1.23;;;21.00;99.90;;;;;;4182970;28;20266;-96
2022/08/26 03:55:33;;;;;;;7.97;1.65;;;21.00;99.90;;;;;;4166871;28;20180;-93
2022/08/26 03:57:34;;;;;;;8.85;1.75;;;20.90;99.90;;;;;;4183253;28;20174;-94
2022/08/26 03:59:35;;;;;;;13.55;1.48;;;20.90;99.90;;;;;;4182945;28;20199;-93
2022/08/26 04:01:35;;;;;;;6.18;1.10;;;20.80;99.90;;;;;;4183196;28;20643;-93
2022/08/26 04:05:56;;;;;;;5.47;1.67;;;20.90;99.90;;;;;;4183106;28;20717;-96
2022/08/26 04:07:57;;;;;;;7.40;1.48;;;20.90;99.90;;;;;;4166467;28;20188;-94
2022/08/26 04:09:58;;;;;;;5.50;1.40;;;20.90;99.90;;;;;;4182466;28;20616;-93
2022/08/26 04:11:58;;;;;;;8.65;1.55;;;21.00;99.90;;;;;;4182755;28;20163;-96
2022/08/26 04:14:01;;;;;;;5.80;1.17;;;21.00;99.90;;;;;;4182705;28;20207;-96
2022/08/26 04:16:02;;;;;;;5.82;1.20;;;21.00;99.90;;;;;;4182758;28;20164;-93
2022/08/26 04:18:02;;;;;;;8.70;1.38;;;21.00;99.90;;;;;;4182614;28;20262;-95
2022/08/26 04:20:06;;;;;;;9.88;1.20;;;21.00;99.90;;;;;;4182513;28;20253;-93
2022/08/26 04:22:07;;;;;;;9.15;1.50;;;21.10;99.90;;;;;;4166199;28;20180;-96
2022/08/26 04:24:10;;;;;;;4.95;1.10;;;21.00;99.90;;;;;;4166013;28;20652;-93
2022/08/26 04:26:10;;;;;;;5.35;1.42;;;20.90;99.90;;;;;;4166107;28;20545;-96
2022/08/26 04:28:12;;;;;;;13.10;1.75;;;20.80;99.90;;;;;;4182549;28;20631;-95
2022/08/26 04:30:14;;;;;;;9.65;1.42;;;20.90;99.90;;;;;;4165649;28;20200;-92
2022/08/26 04:32:14;;;;;;;9.60;1.67;;;20.80;99.90;;;;;;4165838;28;20175;-92
2022/08/26 04:34:16;;;;;;;8.02;1.35;;;20.80;99.90;;;;;;4166016;28;20652;-95
2022/08/26 04:36:17;;;;;;;4.82;1.10;;;20.80;99.90;;;;;;4182287;28;20168;-92
2022/08/26 04:38:18;;;;;;;6.97;1.23;;;20.80;99.90;;;;;;4182287;28;20171;-95
2022/08/26 04:40:19;;;;;;;9.95;1.60;;;20.70;99.90;;;;;;4165853;28;20176;-92
2022/08/26 04:42:21;;;;;;;4.82;1.40;;;20.60;99.90;;;;;;4165928;28;20182;-93
2022/08/26 04:44:23;;;;;;;5.32;1.13;;;20.60;99.90;;;;;;4165545;28;20320;-92
2022/08/26 04:46:24;;;;;;;2.80;1.17;;;20.70;99.90;;;;;;4182174;28;20181;-93
2022/08/26 04:48:28;;;;;;;6.18;1.30;;;20.60;99.90;;;;;;4182367;28;20155;-96
2022/08/26 04:50:29;;;;;;;5.70;1.30;;;20.70;99.90;;;;;;4165909;28;20176;-93
2022/08/26 04:52:30;;;;;;;10.05;1.70;;;20.70;99.90;;;;;;4182692;28;20233;-93
2022/08/26 04:54:31;;;;;;;7.80;1.35;;;20.70;99.90;;;;;;4182087;28;20211;-96
2022/08/26 04:56:37;;;;;;;7.35;1.40;;;20.80;99.90;;;;;;4182266;28;20174;-94
2022/08/26 04:58:38;;;;;;;5.38;1.80;;;20.80;99.90;;;;;;4182111;28;20198;-95
2022/08/26 05:00:39;;;;;;;5.35;1.40;;;20.80;99.90;;;;;;4165840;28;20172;-96
2022/08/26 05:02:39;;;;;;;8.35;1.63;;;20.90;99.90;;;;;;4182045;28;20175;-94
2022/08/26 05:04:42;;;;;;;7.50;1.35;;;20.90;99.90;;;;;;4181827;28;20513;-93
2022/08/26 05:06:43;;;;;;;3.97;1.30;;;20.90;99.90;;;;;;4181862;28;20217;-93
2022/08/26 05:08:44;;;;;;;8.70;1.30;;;21.00;99.90;;;;;;4181692;28;20677;-95
2022/08/26 05:10:53;;;;;;;7.25;1.40;;;21.00;99.90;;;;;;4182056;28;20521;-92
2022/08/26 05:12:54;;;;;;;9.70;1.50;;;21.10;99.90;;;;;;4166297;28;20229;-92
2022/08/26 05:14:55;;;;;;;7.72;1.30;;;21.10;99.90;;;;;;4183094;28;20204;-92
2022/08/26 05:16:55;;;;;;;9.32;1.70;;;21.10;99.90;;;;;;4183745;28;20238;-93
2022/08/26 05:18:56;;;;;;;6.97;1.30;;;21.20;99.90;;;;;;4183684;28;20199;-93
2022/08/26 05:20:57;;;;;;;7.88;1.58;;;21.10;99.90;;;;;;4167686;28;20208;-94
2022/08/26 05:22:59;;;;;;;6.95;1.35;;;21.20;99.90;;;;;;4168050;28;20179;-96
2022/08/26 05:25:00;;;;;;;8.30;1.40;;;21.20;99.90;;;;;;4184986;28;20589;-93
2022/08/26 05:27:02;;;;;;;5.25;1.30;;;21.30;99.90;;;;;;4185964;28;20199;-96
2022/08/26 05:29:03;;;;;;;3.95;1.30;;;21.30;99.90;;;;;;4168353;28;20195;-94
2022/08/26 05:31:19;;;;;;;8.45;1.30;;;21.30;99.90;;;;;;4167997;28;20168;-96
2022/08/26 05:33:21;;;;;;;3.65;1.10;;;21.30;99.90;;;;;;4169522;28;20660;-95
2022/08/26 05:35:22;;;;;;;3.30;1.20;;;21.30;99.90;;;;;;4184861;28;20277;-92
2022/08/26 05:37:22;;;;;;;4.55;1.50;;;21.30;99.90;;;;;;4169035;28;20239;-93
2022/08/26 05:39:23;;;;;;;5.55;1.42;;;21.40;99.90;;;;;;4170557;28;20286;-93
2022/08/26 05:41:27;;;;;;;10.45;1.65;;;21.40;99.90;;;;;;4168508;28;20176;-94
2022/08/26 05:43:28;;;;;;;6.43;1.80;;;21.40;99.90;;;;;;4166336;28;20168;-95
2022/08/26 05:45:31;;;;;;;5.30;1.17;;;21.40;99.90;;;;;;4168354;28;20200;-92
2022/08/26 05:47:32;;;;;;;5.22;1.45;;;21.40;99.90;;;;;;4167847;28;20223;-92
2022/08/26 05:49:33;;;;;;;6.28;1.35;;;21.40;99.90;;;;;;4169714;28;20204;-93
2022/08/26 05:51:34;;;;;;;6.07;1.40;;;21.30;99.90;;;;;;4167901;28;20188;-92
2022/08/26 05:53:36;;;;;;;10.48;1.40;;;21.30;99.90;;;;;;4184432;28;20578;-93
2022/08/26 05:55:50;;;;;;;6.00;1.83;;;21.40;99.90;;;;;;4167932;28;20172;-92
2022/08/26 05:57:52;;;;;;;7.65;1.10;;;21.50;99.90;;;;;;4183832;28;20258;-93
2022/08/26 05:59:52;;;;;;;9.00;1.30;;;21.40;99.90;;;;;;4183621;28;20691;-92
2022/08/26 06:01:53;;;;;;;6.22;1.13;;;21.80;99.90;;;;;;4168851;28;20566;-96
2022/08/26 06:03:57;;;;;;;8.00;1.25;;;22.20;99.90;;;;;;4168508;28;20168;-92
2022/08/26 06:05:58;;;;;;;5.03;1.10;;;22.00;99.90;;;;;;4183193;28;20183;-92
2022/08/26 06:08:12;;;;;;;9.13;1.48;;;21.90;99.90;;;;;;4183557;28;20571;-93
2022/08/26 06:10:13;;;;;;;6.70;1.17;;;21.70;99.90;;;;;;4167699;28;20281;-93
2022/08/26 06:12:14;;;;;;;4.78;0.80;;;21.70;99.90;;;;;;4170080;28;20179;-93
2022/08/26 06:14:16;;;;;;;6.70;1.17;;;21.70;99.90;;;;;;4170004;28;20208;-92
2022/08/26 06:16:22;;;;;;;7.18;1.90;;;21.80;99.90;;;;;;4182731;28;20271;-95
2022/08/26 06:18:33;;;;;;;5.20;0.98;;;21.90;99.90;;;;;;4186076;28;20214;-92
2022/08/26 06:20:42;;;;;;;4.40;0.85;;;21.80;99.90;;;;;;4185471;28;20228;-94
2022/08/26 06:27:33;;;;;;;3.65;0.80;;;21.90;99.90;;;;;;4185911;28;20190;-93
2022/08/26 06:29:35;;;;;;;5.55;0.90;;;22.00;99.90;;;;;;4188702;28;20194;-91
2022/08/26 06:31:36;;;;;;;4.18;0.77;;;22.00;99.90;;;;;;4171560;28;20187;-93
2022/08/26 06:33:36;;;;;;;6.53;1.05;;;22.00;99.90;;;;;;4186306;28;20655;-92
2022/08/26 06:35:40;;;;;;;8.40;0.98;;;22.10;99.90;;;;;;4172836;28;20199;-96
2022/08/26 06:37:41;;;;;;;3.50;0.82;;;22.00;99.90;;;;;;4188628;28;20179;-94
2022/08/26 06:39:42;;;;;;;4.93;0.85;;;22.10;99.90;;;;;;4186519;28;20199;-96
2022/08/26 06:41:44;;;;;;;6.22;0.82;;;22.40;99.90;;;;;;4184462;28;20199;-95
2022/08/26 06:43:51;;;;;;;3.03;0.68;;;22.50;99.90;;;;;;4186534;28;20269;-95
2022/08/26 06:46:00;;;;;;;5.35;0.70;;;22.40;99.90;;;;;;4166971;28;20169;-96
2022/08/26 06:48:01;;;;;;;3.80;0.90;;;22.30;99.90;;;;;;4183277;28;20183;-94
2022/08/26 06:50:02;;;;;;;2.42;0.60;;;22.10;99.90;;;;;;4166969;28;20246;-92
2022/08/26 06:52:03;;;;;;;3.50;0.73;;;22.10;99.90;;;;;;4167764;28;20169;-95
2022/08/26 06:54:05;;;;;;;5.97;0.95;;;22.10;99.90;;;;;;4167831;28;20212;-95
2022/08/26 06:56:08;;;;;;;5.68;0.68;;;22.20;99.90;;;;;;4169803;28;20168;-92
2022/08/26 06:58:09;;;;;;;7.10;0.90;;;22.00;99.90;;;;;;4185228;28;20236;-93
2022/08/26 07:00:11;;;;;;;9.13;1.02;;;21.90;99.90;;;;;;4185041;28;20749;-96
2022/08/26 07:02:12;;;;;;;10.30;1.15;;;21.90;99.90;;;;;;4167836;28;20172;-94
2022/08/26 07:04:15;;;;;;;3.28;0.50;;;21.90;99.90;;;;;;4183749;28;20294;-92
2022/08/26 07:06:18;;;;;;;5.60;0.70;;;21.90;99.90;;;;;;4183813;28;20171;-93
2022/08/26 07:08:21;;;;;;;5.15;0.82;;;22.00;99.90;;;;;;4181935;28;20164;-93
2022/08/26 07:10:21;;;;;;;8.82;0.77;;;21.90;99.90;;;;;;4186747;28;20172;-94
2022/08/26 07:12:24;;;;;;;2.67;0.80;;;22.10;99.90;;;;;;4186822;28;20185;-93
2022/08/26 07:14:25;;;;;;;5.65;0.70;;;22.00;99.90;;;;;;4186396;28;20210;-92
2022/08/26 07:16:26;;;;;;;4.50;0.65;;;22.00;99.90;;;;;;4186655;28;20179;-95
2022/08/26 07:18:27;;;;;;;5.95;1.00;;;22.10;99.90;;;;;;4169866;28;20176;-95
2022/08/26 07:20:28;;;;;;;2.78;0.90;;;22.10;99.90;;;;;;4187754;28;20654;-94
2022/08/26 07:22:30;;;;;;;6.82;0.80;;;22.00;99.90;;;;;;4174070;28;20214;-93
2022/08/26 07:24:37;;;;;;;2.67;0.70;;;21.90;99.90;;;;;;4172166;28;20199;-93
2022/08/26 07:26:38;;;;;;;8.80;1.08;;;21.90;99.90;;;;;;4191214;28;20171;-96
2022/08/26 07:28:40;;;;;;;8.25;1.00;;;22.00;99.90;;;;;;4189178;28;20187;-93
2022/08/26 07:30:41;;;;;;;5.97;0.80;;;22.00;99.90;;;;;;4190163;28;20187;-93
2022/08/26 07:32:42;;;;;;;3.60;1.13;;;22.20;99.90;;;;;;4189422;28;20567;-94
2022/08/26 07:34:43;;;;;;;3.40;0.80;;;22.10;99.90;;;;;;4173905;28;20267;-95
2022/08/26 07:36:44;;;;;;;5.60;1.13;;;22.10;99.90;;;;;;4171231;28;20637;-90
2022/08/26 07:38:46;;;;;;;6.75;0.90;;;22.00;99.90;;;;;;4172446;28;20227;-96
2022/08/26 07:40:47;;;;;;;3.45;0.65;;;22.00;99.90;;;;;;4172720;28;20175;-95
2022/08/26 07:42:49;;;;;;;6.80;0.75;;;22.00;99.90;;;;;;4171129;28;20204;-92
2022/08/26 07:44:49;;;;;;;10.80;0.93;;;22.20;99.90;;;;;;4173207;28;20192;-96
2022/08/26 07:46:50;;;;;;;7.32;0.77;;;22.30;99.90;;;;;;4170699;28;20207;-93
2022/08/26 07:48:51;;;;;;;4.82;0.60;;;22.30;99.90;;;;;;4172280;28;20195;-93
2022/08/26 07:50:52;;;;;;;7.30;1.05;;;22.10;99.90;;;;;;4169961;28;20184;-95
2022/08/26 07:52:53;;;;;;;6.78;0.80;;;22.40;99.90;;;;;;4184932;28;20172;-93
2022/08/26 07:54:56;;;;;;;9.52;0.90;;;22.50;99.90;;;;;;4189180;28;20304;-93
2022/08/26 07:56:57;;;;;;;4.30;0.82;;;22.50;99.90;;;;;;4184443;28;20524;-96
2022/08/26 07:58:58;;;;;;;8.00;1.15;;;22.60;99.90;;;;;;4171400;28;20199;-92
2022/08/26 08:00:59;;;;;;;5.97;0.82;;;22.70;99.90;;;;;;4185297;28;20243;-93
2022/08/26 08:03:01;;;;;;;3.80;0.77;;;22.60;99.90;;;;;;4183497;28;20176;-96
2022/08/26 08:05:02;;;;;;;9.63;0.80;;;22.50;99.90;;;;;;4184118;28;20178;-92
2022/08/26 08:07:03;;;;;;;7.72;1.08;;;22.40;99.90;;;;;;4183451;28;20231;-95
2022/08/26 08:09:04;;;;;;;5.63;1.00;;;22.50;99.90;;;;;;4185177;28;20208;-92
2022/08/26 08:11:05;;;;;;;4.30;0.65;;;22.40;99.90;;;;;;4169277;28;20180;-95
2022/08/26 08:13:07;;;;;;;7.57;0.82;;;22.70;99.90;;;;;;4184732;28;20179;-96
2022/08/26 08:15:08;;;;;;;7.30;0.77;;;22.90;99.90;;;;;;4186569;28;20235;-95
2022/08/26 08:17:09;;;;;;;4.75;0.80;;;23.20;99.90;;;;;;4167615;28;20176;-92
2022/08/26 08:19:10;;;;;;;6.30;0.65;;;23.30;99.90;;;;;;4184355;28;20200;-93
2022/08/26 08:21:11;;;;;;;5.47;0.52;;;23.30;99.90;;;;;;4166557;28;20226;-95
2022/08/26 08:23:12;;;;;;;4.25;1.05;;;23.50;99.90;;;;;;4182880;28;20226;-94
2022/08/26 08:25:14;;;;;;;4.22;1.00;;;23.80;99.90;;;;;;4166392;28;20187;-96
2022/08/26 08:27:15;;;;;;;3.42;0.60;;;23.90;99.90;;;;;;4182997;28;20172;-92
2022/08/26 08:29:15;;;;;;;4.90;0.63;;;23.90;99.90;;;;;;4185423;28;20295;-95
2022/08/26 08:31:22;;;;;;;8.27;0.60;;;23.40;99.90;;;;;;4166888;28;20180;-95
2022/08/26 08:33:23;;;;;;;3.83;0.60;;;23.20;99.90;;;;;;4168800;28;20179;-94
2022/08/26 08:35:25;;;;;;;6.35;0.70;;;22.90;99.90;;;;;;4169291;28;20212;-96
2022/08/26 08:37:25;;;;;;;8.70;0.80;;;23.20;99.90;;;;;;4169773;28;20168;-96
2022/08/26 08:39:26;;;;;;;5.47;0.63;;;23.30;99.90;;;;;;4168244;28;20203;-94
2022/08/26 08:41:36;;;;;;;7.90;0.73;;;23.20;99.90;;;;;;4169224;28;20176;-96
2022/08/26 08:43:42;;;;;;;3.35;0.65;;;23.60;99.90;;;;;;4185907;28;20180;-95
2022/08/26 08:45:55;;;;;;;3.03;0.50;;;24.30;99.90;;;;;;4187012;28;20172;-93
2022/08/26 08:47:59;;;;;;;3.85;0.60;;;24.50;99.90;;;;;;4169181;28;20183;-94
2022/08/26 08:50:26;;;;;;;4.57;0.50;;;24.40;99.90;;;;;;4187358;28;20195;-92
2022/08/26 08:52:31;;;;;;;4.45;0.60;;;24.20;99.90;;;;;;4158895;28;20187;-93
2022/08/26 08:54:32;;;;;;;4.68;0.77;;;24.00;99.90;;;;;;4171127;28;20204;-94
2022/08/26 08:57:01;;;;;;;5.70;0.63;;;23.80;99.90;;;;;;4185585;28;20686;-94
2022/08/26 08:59:19;;;;;;;4.70;0.47;;;23.80;99.90;;;;;;4169057;28;20200;-93
2022/08/26 09:01:50;;;;;;;3.60;0.70;;;23.70;99.90;;;;;;4187466;28;20206;-95
2022/08/26 09:04:13;;;;;;;3.85;0.50;;;23.90;99.90;;;;;;4169078;28;20226;-94
2022/08/26 09:06:17;;;;;;;4.93;0.47;;;23.80;99.90;;;;;;4185821;28;20266;-96
2022/08/26 09:08:26;;;;;;;6.75;0.40;;;23.90;99.90;;;;;;4167106;28;20202;-94
2022/08/26 09:10:33;;;;;;;6.20;0.60;;;24.40;99.90;;;;;;4168322;28;20176;-93
2022/08/26 09:12:34;;;;;;;2.38;0.55;;;24.70;99.90;;;;;;4184207;28;20259;-95
2022/08/26 09:14:35;;;;;;;4.07;0.93;;;25.10;99.90;;;;;;4185034;28;20242;-96
2022/08/26 09:17:06;;;;;;;4.55;0.70;;;25.00;99.90;;;;;;4166801;28;20271;-95
2022/08/26 09:19:24;;;;;;;4.45;0.60;;;24.80;99.90;;;;;;4183518;28;20192;-94
2022/08/26 09:21:26;;;;;;;5.63;0.50;;;24.30;99.90;;;;;;4182412;28;20179;-96
2022/08/26 09:23:27;;;;;;;8.13;0.80;;;24.10;99.90;;;;;;4184593;28;20172;-94
2022/08/26 09:25:28;;;;;;;5.28;0.70;;;24.00;99.90;;;;;;4167212;28;20175;-93
2022/08/26 09:27:41;;;;;;;6.20;0.55;;;24.10;99.90;;;;;;4168065;28;20537;-95
2022/08/26 09:29:44;;;;;;;4.80;0.70;;;24.00;99.90;;;;;;4182681;28;20187;-95
2022/08/26 09:31:45;;;;;;;4.68;0.73;;;23.60;99.90;;;;;;4165516;28;20171;-95
2022/08/26 09:33:46;;;;;;;3.05;0.57;;;23.30;99.90;;;;;;4166349;28;20624;-94
2022/08/26 09:35:47;;;;;;;5.30;0.50;;;23.00;99.90;;;;;;4166841;28;20168;-95
2022/08/26 09:37:49;;;;;;;4.78;0.65;;;22.60;99.90;;;;;;4182657;28;20163;-96
2022/08/26 09:39:49;;;;;;;2.45;0.60;;;22.20;99.90;;;;;;4168336;28;20223;-91
2022/08/26 09:42:19;;;;;;;3.92;0.70;;;22.00;99.90;;;;;;4184167;28;20174;-94
2022/08/26 09:44:19;;;;;;;2.78;0.47;;;22.00;99.90;;;;;;4182200;28;20213;-96
2022/08/26 09:46:26;;;;;;;2.35;0.40;;;22.20;99.90;;;;;;4183066;28;20266;-96
2022/08/26 09:48:34;;;;;;;4.85;0.45;;;22.20;99.90;;;;;;4166174;28;20165;-96
2022/08/26 09:50:37;;;;;;;2.50;0.50;;;22.30;99.90;;;;;;4181852;28;20232;-92
2022/08/26 09:52:37;;;;;;;8.32;0.68;;;22.70;99.90;;;;;;4184937;28;20185;-93
2022/08/26 09:54:40;;;;;;;0.77;0.32;;;22.90;99.90;;;;;;4183321;28;20695;-91
2022/08/26 09:56:41;;;;;;;8.10;0.80;;;23.00;99.90;;;;;;4169718;28;20219;-89
2022/08/26 09:58:46;;;;;;;3.28;0.35;;;23.30;99.90;;;;;;4166597;28;20496;-92
2022/08/26 10:00:56;;;;;;;4.93;0.50;;;23.10;99.90;;;;;;4186522;28;20175;-92
2022/08/26 10:02:58;;;;;;;0.98;0.38;;;22.90;99.90;;;;;;4191073;28;20185;-91
2022/08/26 10:05:05;;;;;;;0.77;0.25;;;22.90;99.90;;;;;;4170364;28;20207;-90
2022/08/26 10:07:07;;;;;;;5.18;0.40;;;22.90;99.90;;;;;;4168784;28;20262;-91
2022/08/26 10:09:12;;;;;;;1.17;0.40;;;22.90;99.90;;;;;;4190566;28;20199;-90
2022/08/26 10:11:22;;;;;;;1.33;0.50;;;23.00;99.90;;;;;;4172697;28;20184;-93
2022/08/26 10:13:47;;;;;;;1.67;0.40;;;23.30;99.90;;;;;;4191620;28;20182;-95
2022/08/26 10:16:22;;;;;;;3.38;0.40;;;23.70;99.90;;;;;;4191004;28;20679;-96
2022/08/26 10:18:43;;;;;;;1.65;0.40;;;24.00;99.90;;;;;;4172749;28;20176;-94
2022/08/26 10:21:07;;;;;;;1.35;0.30;;;24.00;99.90;;;;;;4194332;28;20159;-92
2022/08/26 10:23:15;;;;;;;8.35;0.43;;;24.50;99.90;;;;;;4167116;28;20176;-93
2022/08/26 10:25:23;;;;;;;3.95;0.50;;;24.60;99.90;;;;;;4184028;28;20206;-95
2022/08/26 10:27:57;;;;;;;1.27;0.30;;;24.20;99.90;;;;;;4188558;28;20198;-93
2022/08/26 10:30:06;;;;;;;5.75;0.40;;;24.10;99.90;;;;;;4168547;28;20191;-93
2022/08/26 10:32:18;;;;;;;2.15;0.30;;;24.20;99.90;;;;;;4168920;28;20172;-93
2022/08/26 10:34:22;;;;;;;3.20;0.28;;;24.40;99.90;;;;;;4186618;28;20175;-92
2022/08/26 10:38:45;;;;;;;2.85;0.40;;;24.50;99.90;;;;;;4184259;28;20195;-96
2022/08/26 10:40:57;;;;;;;1.20;0.20;;;24.20;99.90;;;;;;4169216;28;20175;-93
2022/08/26 10:43:07;;;;;;;3.97;0.50;;;24.40;99.90;;;;;;4186222;28;20175;-93
2022/08/26 10:45:14;;;;;;;3.30;0.52;;;24.50;99.90;;;;;;4188155;28;20583;-93
2022/08/26 10:47:33;;;;;;;2.30;0.43;;;24.60;99.90;;;;;;4212616;28;20170;-96
2022/08/26 10:49:35;;;;;;;1.60;0.35;;;24.60;99.90;;;;;;4187268;28;20202;-95
2022/08/26 10:51:59;;;;;;;2.92;0.40;;;24.80;99.90;;;;;;4186560;28;20178;-95
2022/08/26 10:54:05;;;;;;;4.32;0.47;;;24.50;99.90;;;;;;4188603;28;20178;-94
2022/08/26 10:56:27;;;;;;;6.03;0.43;;;24.60;99.90;;;;;;4204043;28;20179;-92